createdAt,value
2018-08-11T00:00:01.703Z,18.83
2018-08-11T00:01:01.720Z,18.80
2018-08-11T00:02:01.723Z,18.88
2018-08-11T00:03:01.710Z,18.83
2018-08-11T00:04:01.698Z,18.83
2018-08-11T00:05:01.719Z,18.80
2018-08-11T00:06:01.694Z,18.73
2018-08-11T00:07:01.683Z,18.75
2018-08-11T00:08:01.679Z,18.71
2018-08-11T00:09:01.681Z,18.74
2018-08-11T00:10:01.678Z,18.84
2018-08-11T00:11:01.670Z,18.80
2018-08-11T00:12:01.667Z,18.75
2018-08-11T00:13:01.663Z,18.84
2018-08-11T00:14:01.654Z,18.83
2018-08-11T00:15:01.655Z,18.92
2018-08-11T00:16:01.663Z,18.88
2018-08-11T00:17:01.637Z,18.83
2018-08-11T00:18:01.645Z,18.83
2018-08-11T00:19:01.678Z,18.88
2018-08-11T00:20:01.658Z,18.88
2018-08-11T00:21:01.626Z,18.90
2018-08-11T00:22:01.623Z,18.89
2018-08-11T00:23:01.627Z,18.86
2018-08-11T00:24:01.629Z,18.88
2018-08-11T00:25:01.613Z,18.89
2018-08-11T00:26:01.613Z,18.88
2018-08-11T00:27:01.603Z,18.93
2018-08-11T00:28:01.613Z,18.93
2018-08-11T00:29:01.611Z,18.90
2018-08-11T00:30:01.607Z,18.92
2018-08-11T00:31:01.632Z,18.86
2018-08-11T00:32:01.594Z,18.93
2018-08-11T00:33:01.585Z,18.89
2018-08-11T00:34:01.607Z,18.88
2018-08-11T00:35:01.582Z,18.90
2018-08-11T00:36:01.575Z,18.92
2018-08-11T00:37:01.601Z,18.88
2018-08-11T00:38:01.591Z,18.90
2018-08-11T00:39:01.600Z,18.83
2018-08-11T00:40:01.568Z,18.86
2018-08-11T00:41:01.561Z,18.86
2018-08-11T00:42:01.554Z,18.86
2018-08-11T00:43:01.588Z,18.86
2018-08-11T00:44:01.546Z,18.89
2018-08-11T00:45:01.547Z,18.86
2018-08-11T00:46:01.546Z,18.93
2018-08-11T00:47:01.569Z,18.89
2018-08-11T00:48:01.602Z,18.90
2018-08-11T00:49:01.550Z,18.89
2018-08-11T00:50:01.549Z,18.88
2018-08-11T00:51:01.561Z,18.88
2018-08-11T00:52:01.520Z,18.96
2018-08-11T00:53:01.525Z,18.92
2018-08-11T00:54:01.574Z,18.90
2018-08-11T00:55:01.513Z,18.90
2018-08-11T00:56:01.506Z,18.93
2018-08-11T00:57:01.514Z,18.93
2018-08-11T00:58:01.500Z,18.88
2018-08-11T00:59:01.497Z,18.88
2018-08-11T01:00:01.521Z,18.86
2018-08-11T01:01:01.515Z,18.86
2018-08-11T01:02:01.486Z,18.80
2018-08-11T01:03:01.483Z,18.83
2018-08-11T01:04:01.478Z,18.74
2018-08-11T01:05:01.474Z,18.86
2018-08-11T01:06:01.467Z,18.78
2018-08-11T01:07:01.472Z,18.78
2018-08-11T01:08:01.463Z,18.75
2018-08-11T01:09:01.464Z,18.71
2018-08-11T01:10:01.477Z,18.65
2018-08-11T01:11:01.545Z,18.55
2018-08-11T01:12:01.463Z,18.49
2018-08-11T01:13:01.453Z,18.53
2018-08-11T01:14:01.445Z,18.40
2018-08-11T01:15:01.440Z,18.43
2018-08-11T01:16:01.438Z,18.43
2018-08-11T01:17:01.468Z,18.37
2018-08-11T01:18:01.448Z,18.29
2018-08-11T01:19:01.450Z,18.26
2018-08-11T01:20:01.439Z,18.23
2018-08-11T01:21:01.415Z,18.28
2018-08-11T01:22:01.413Z,18.19
2018-08-11T01:23:01.453Z,18.15
2018-08-11T01:24:01.410Z,18.07
2018-08-11T01:25:01.417Z,18.03
2018-08-11T01:26:01.408Z,18.01
2018-08-11T01:27:01.396Z,17.94
2018-08-11T01:28:01.448Z,17.94
2018-08-11T01:29:01.390Z,17.89
2018-08-11T01:30:01.418Z,17.78
2018-08-11T01:31:01.381Z,17.67
2018-08-11T01:32:01.380Z,17.65
2018-08-11T01:33:01.379Z,17.57
2018-08-11T01:34:01.372Z,17.54
2018-08-11T01:35:01.377Z,17.57
2018-08-11T01:36:01.367Z,17.41
2018-08-11T01:37:01.409Z,17.46
2018-08-11T01:38:01.382Z,17.45
2018-08-11T01:39:01.389Z,17.42
2018-08-11T01:40:01.381Z,17.41
2018-08-11T01:41:01.342Z,17.42
2018-08-11T01:42:01.338Z,17.33
2018-08-11T01:43:01.341Z,17.22
2018-08-11T01:44:01.394Z,17.14
2018-08-11T01:45:01.340Z,17.06
2018-08-11T01:46:01.335Z,17.09
2018-08-11T01:47:01.331Z,17.01
2018-08-11T01:48:01.351Z,17.05
2018-08-11T01:49:01.337Z,17.04
2018-08-11T01:50:01.335Z,16.87
2018-08-11T01:51:01.348Z,16.79
2018-08-11T01:52:01.304Z,16.69
2018-08-11T01:53:01.304Z,16.42
2018-08-11T01:54:01.310Z,16.49
2018-08-11T01:55:01.295Z,16.35
2018-08-11T01:56:01.287Z,16.28
2018-08-11T01:57:01.290Z,16.16
2018-08-11T01:58:01.301Z,16.13
2018-08-11T01:59:01.301Z,16.01
2018-08-11T02:00:01.267Z,16.00
2018-08-11T02:01:01.265Z,16.01
2018-08-11T02:02:01.282Z,16.00
2018-08-11T02:03:01.257Z,15.88
2018-08-11T02:04:01.250Z,15.83
2018-08-11T02:05:01.974Z,15.79
2018-08-11T02:06:01.255Z,15.70
2018-08-11T02:07:01.248Z,15.62
2018-08-11T02:08:01.260Z,15.65
2018-08-11T02:09:01.239Z,15.62
2018-08-11T02:10:01.224Z,15.58
2018-08-11T02:11:01.228Z,15.62
2018-08-11T02:12:01.215Z,15.61
2018-08-11T02:13:01.207Z,15.54
2018-08-11T02:14:01.204Z,15.49
2018-08-11T02:15:01.220Z,15.49
2018-08-11T02:16:01.201Z,15.39
2018-08-11T02:17:01.192Z,15.35
2018-08-11T02:18:01.184Z,15.37
2018-08-11T02:19:01.180Z,15.40
2018-08-11T02:20:01.187Z,15.25
2018-08-11T02:21:01.174Z,15.25
2018-08-11T02:22:01.166Z,15.21
2018-08-11T02:23:01.155Z,15.09
2018-08-11T02:24:01.159Z,15.17
2018-08-11T02:25:01.156Z,15.09
2018-08-11T02:26:01.143Z,15.02
2018-08-11T02:27:01.143Z,15.09
2018-08-11T02:28:01.141Z,15.03
2018-08-11T02:29:01.127Z,15.04
2018-08-11T02:30:01.121Z,15.17
2018-08-11T02:31:01.118Z,15.09
2018-08-11T02:32:01.121Z,15.06
2018-08-11T02:33:01.108Z,14.96
2018-08-11T02:34:01.111Z,14.99
2018-08-11T02:35:01.096Z,14.97
2018-08-11T02:36:01.094Z,14.94
2018-08-11T02:37:01.091Z,14.94
2018-08-11T02:38:01.084Z,14.84
2018-08-11T02:39:01.077Z,14.96
2018-08-11T02:40:01.069Z,14.92
2018-08-11T02:41:01.066Z,14.92
2018-08-11T02:42:01.089Z,14.99
2018-08-11T02:43:01.062Z,15.00
2018-08-11T02:44:01.080Z,14.89
2018-08-11T02:45:01.049Z,14.78
2018-08-11T02:46:01.040Z,14.84
2018-08-11T02:47:01.033Z,14.84
2018-08-11T02:48:01.030Z,14.69
2018-08-11T02:49:01.019Z,14.69
2018-08-11T02:50:01.014Z,14.60
2018-08-11T02:51:01.013Z,14.50
2018-08-11T02:52:01.017Z,14.50
2018-08-11T02:53:01.050Z,14.43
2018-08-11T02:54:01.003Z,14.32
2018-08-11T02:55:00.991Z,14.26
2018-08-11T02:56:00.986Z,14.32
2018-08-11T02:57:00.978Z,14.32
2018-08-11T02:58:00.985Z,14.29
2018-08-11T02:59:00.971Z,14.30
2018-08-11T03:00:00.972Z,14.25
2018-08-11T03:01:00.964Z,14.26
2018-08-11T03:02:00.956Z,14.30
2018-08-11T03:03:01.520Z,14.26
2018-08-11T03:04:00.942Z,14.26
2018-08-11T03:05:00.952Z,14.25
2018-08-11T03:06:00.951Z,14.29
2018-08-11T03:07:00.945Z,14.30
2018-08-11T03:08:00.926Z,14.25
2018-08-11T03:09:00.916Z,14.30
2018-08-11T03:10:00.913Z,14.25
2018-08-11T03:11:00.905Z,14.26
2018-08-11T03:12:00.903Z,14.26
2018-08-11T03:13:00.892Z,14.22
2018-08-11T03:14:00.935Z,14.25
2018-08-11T03:15:00.882Z,14.29
2018-08-11T03:16:00.882Z,14.26
2018-08-11T03:17:00.889Z,14.36
2018-08-11T03:18:00.907Z,14.33
2018-08-11T03:19:00.861Z,14.35
2018-08-11T03:20:00.860Z,14.35
2018-08-11T03:21:00.856Z,14.35
2018-08-11T03:22:00.841Z,14.35
2018-08-11T03:23:00.836Z,14.36
2018-08-11T03:24:00.832Z,14.36
2018-08-11T03:25:00.836Z,14.35
2018-08-11T03:26:00.820Z,14.47
2018-08-11T03:27:00.817Z,14.41
2018-08-11T03:28:00.814Z,14.40
2018-08-11T03:29:00.804Z,14.40
2018-08-11T03:30:00.813Z,14.43
2018-08-11T03:31:00.806Z,14.36
2018-08-11T03:32:00.785Z,14.36
2018-08-11T03:33:00.789Z,14.37
2018-08-11T03:34:00.777Z,14.36
2018-08-11T03:35:00.778Z,14.35
2018-08-11T03:36:00.767Z,14.41
2018-08-11T03:37:00.760Z,14.28
2018-08-11T03:38:00.756Z,14.30
2018-08-11T03:39:00.746Z,14.29
2018-08-11T03:40:00.778Z,14.29
2018-08-11T03:41:00.760Z,14.26
2018-08-11T03:42:00.748Z,14.18
2018-08-11T03:43:00.723Z,14.25
2018-08-11T03:44:00.727Z,14.23
2018-08-11T03:45:00.713Z,14.22
2018-08-11T03:46:00.835Z,14.20
2018-08-11T03:47:00.701Z,14.12
2018-08-11T03:48:00.721Z,14.11
2018-08-11T03:49:00.698Z,14.10
2018-08-11T03:50:00.691Z,14.12
2018-08-11T03:51:00.677Z,14.12
2018-08-11T03:52:00.682Z,14.05
2018-08-11T03:53:00.665Z,14.12
2018-08-11T03:54:00.668Z,14.10
2018-08-11T03:55:00.656Z,13.96
2018-08-11T03:56:00.652Z,13.96
2018-08-11T03:57:00.647Z,13.96
2018-08-11T03:58:00.648Z,14.04
2018-08-11T03:59:00.632Z,14.00
2018-08-11T04:00:00.631Z,13.93
2018-08-11T04:01:00.628Z,13.96
2018-08-11T04:02:00.624Z,13.97
2018-08-11T04:03:00.614Z,13.96
2018-08-11T04:04:00.604Z,13.95
2018-08-11T04:05:00.603Z,14.03
2018-08-11T04:06:00.599Z,13.90
2018-08-11T04:07:00.588Z,13.97
2018-08-11T04:08:00.589Z,13.93
2018-08-11T04:09:00.580Z,13.97
2018-08-11T04:10:00.572Z,13.95
2018-08-11T04:11:00.566Z,13.93
2018-08-11T04:12:00.555Z,13.97
2018-08-11T04:13:00.552Z,13.97
2018-08-11T04:14:00.550Z,13.93
2018-08-11T04:15:00.541Z,13.95
2018-08-11T04:16:00.539Z,13.93
2018-08-11T04:17:00.536Z,13.99
2018-08-11T04:18:00.522Z,13.96
2018-08-11T04:19:00.524Z,13.95
2018-08-11T04:20:00.509Z,13.97
2018-08-11T04:21:00.508Z,14.04
2018-08-11T04:22:00.518Z,13.99
2018-08-11T04:23:00.516Z,13.99
2018-08-11T04:24:00.493Z,13.90
2018-08-11T04:25:00.489Z,13.92
2018-08-11T04:26:00.480Z,13.92
2018-08-11T04:27:00.481Z,13.92
2018-08-11T04:28:00.463Z,13.96
2018-08-11T04:29:00.456Z,13.96
2018-08-11T04:30:00.452Z,13.93
2018-08-11T04:31:00.465Z,13.89
2018-08-11T04:32:00.446Z,13.95
2018-08-11T04:33:00.435Z,13.87
2018-08-11T04:34:00.435Z,13.86
2018-08-11T04:35:00.427Z,13.89
2018-08-11T04:36:00.437Z,13.75
2018-08-11T04:37:00.416Z,13.74
2018-08-11T04:38:00.419Z,13.75
2018-08-11T04:39:00.416Z,13.71
2018-08-11T04:40:00.399Z,13.74
2018-08-11T04:41:00.400Z,13.71
2018-08-11T04:42:00.394Z,13.71
2018-08-11T04:43:00.382Z,13.79
2018-08-11T04:44:00.376Z,13.74
2018-08-11T04:45:00.374Z,13.74
2018-08-11T04:46:00.365Z,13.71
2018-08-11T04:47:00.360Z,13.71
2018-08-11T04:48:00.354Z,13.74
2018-08-11T04:49:00.360Z,13.75
2018-08-11T04:50:00.342Z,13.78
2018-08-11T04:51:00.335Z,13.71
2018-08-11T04:52:00.332Z,13.72
2018-08-11T04:53:00.328Z,13.68
2018-08-11T04:54:00.339Z,13.71
2018-08-11T04:55:00.317Z,13.75
2018-08-11T04:56:00.318Z,13.75
2018-08-11T04:57:00.298Z,13.74
2018-08-11T04:58:00.296Z,13.75
2018-08-11T04:59:00.292Z,13.81
2018-08-11T05:00:00.297Z,13.78
2018-08-11T05:01:00.289Z,13.81
2018-08-11T05:02:00.271Z,13.85
2018-08-11T05:03:00.267Z,13.78
2018-08-11T05:04:00.266Z,13.83
2018-08-11T05:05:00.253Z,13.79
2018-08-11T05:06:00.260Z,13.86
2018-08-11T05:07:00.277Z,13.86
2018-08-11T05:08:00.247Z,13.89
2018-08-11T05:09:00.255Z,13.85
2018-08-11T05:10:00.227Z,13.89
2018-08-11T05:11:00.224Z,13.92
2018-08-11T05:12:00.236Z,13.95
2018-08-11T05:13:00.234Z,13.90
2018-08-11T05:14:00.208Z,13.96
2018-08-11T05:15:00.199Z,13.95
2018-08-11T05:16:00.191Z,13.99
2018-08-11T05:17:00.187Z,13.95
2018-08-11T05:18:00.179Z,13.90
2018-08-11T05:19:00.194Z,13.95
2018-08-11T05:20:00.213Z,13.93
2018-08-11T05:21:00.170Z,14.12
2018-08-11T05:22:00.163Z,13.96
2018-08-11T05:23:00.152Z,14.04
2018-08-11T05:24:00.149Z,14.05
2018-08-11T05:25:00.159Z,13.97
2018-08-11T05:26:00.140Z,14.10
2018-08-11T05:27:00.135Z,14.10
2018-08-11T05:28:00.129Z,14.22
2018-08-11T05:29:00.121Z,14.17
2018-08-11T05:30:00.117Z,14.18
2018-08-11T05:31:00.123Z,14.17
2018-08-11T05:32:00.109Z,14.20
2018-08-11T05:33:00.105Z,14.20
2018-08-11T05:34:00.098Z,14.18
2018-08-11T05:35:00.088Z,14.23
2018-08-11T05:36:00.084Z,14.26
2018-08-11T05:37:00.087Z,14.17
2018-08-11T05:38:00.080Z,14.17
2018-08-11T05:39:00.078Z,14.22
2018-08-11T05:40:00.066Z,14.18
2018-08-11T05:41:00.060Z,14.26
2018-08-11T05:42:00.051Z,14.29
2018-08-11T05:43:00.048Z,14.32
2018-08-11T05:44:00.042Z,14.29
2018-08-11T05:45:00.057Z,14.26
2018-08-11T05:46:00.033Z,14.35
2018-08-11T05:47:00.030Z,14.37
2018-08-11T05:48:00.028Z,14.40
2018-08-11T05:49:00.016Z,14.43
2018-08-11T05:50:00.017Z,14.37
2018-08-11T05:51:00.012Z,14.45
2018-08-11T05:52:00.010Z,14.51
2018-08-11T05:53:00.024Z,14.58
2018-08-11T05:53:59.997Z,14.53
2018-08-11T05:54:59.985Z,14.66
2018-08-11T05:55:59.987Z,14.59
2018-08-11T05:56:59.972Z,14.63
2018-08-11T05:57:59.970Z,14.66
2018-08-11T05:58:59.971Z,14.73
2018-08-11T05:59:59.957Z,14.73
2018-08-11T06:00:59.960Z,14.69
2018-08-11T06:02:00.025Z,14.69
2018-08-11T06:02:59.987Z,14.69
2018-08-11T06:04:00.012Z,14.84
2018-08-11T06:04:59.968Z,14.82
2018-08-11T06:05:59.926Z,14.85
2018-08-11T06:06:59.926Z,14.89
2018-08-11T06:07:59.936Z,14.96
2018-08-11T06:08:59.920Z,14.81
2018-08-11T06:09:59.932Z,14.97
2018-08-11T06:10:59.983Z,14.94
2018-08-11T06:11:59.928Z,14.86
2018-08-11T06:12:59.892Z,14.92
2018-08-11T06:13:59.900Z,15.00
2018-08-11T06:14:59.891Z,15.02
2018-08-11T06:15:59.880Z,15.02
2018-08-11T06:16:59.917Z,15.02
2018-08-11T06:17:59.869Z,15.04
2018-08-11T06:18:59.891Z,15.09
2018-08-11T06:19:59.895Z,15.07
2018-08-11T06:20:59.893Z,15.14
2018-08-11T06:22:00.619Z,15.15
2018-08-11T06:22:59.858Z,15.21
2018-08-11T06:23:59.860Z,15.22
2018-08-11T06:24:59.839Z,15.27
2018-08-11T06:25:59.851Z,15.29
2018-08-11T06:26:59.853Z,15.29
2018-08-11T06:27:59.873Z,15.28
2018-08-11T06:28:59.821Z,15.39
2018-08-11T06:29:59.813Z,15.46
2018-08-11T06:30:59.809Z,15.54
2018-08-11T06:31:59.839Z,15.51
2018-08-11T06:32:59.807Z,15.58
2018-08-11T06:33:59.798Z,15.54
2018-08-11T06:35:20.807Z,15.61
2018-08-11T06:36:06.616Z,15.64
2018-08-11T06:36:59.838Z,15.61
2018-08-11T06:37:59.791Z,15.58
2018-08-11T06:38:59.812Z,15.65
2018-08-11T06:40:00.610Z,15.64
2018-08-11T06:40:59.965Z,15.64
2018-08-11T06:42:14.596Z,15.52
2018-08-11T06:42:59.776Z,15.51
2018-08-11T06:43:59.766Z,15.57
2018-08-11T06:44:59.747Z,15.67
2018-08-11T06:45:59.770Z,15.61
2018-08-11T06:46:59.800Z,15.64
2018-08-11T06:47:59.751Z,15.75
2018-08-11T06:48:59.753Z,15.83
2018-08-11T06:49:59.734Z,16.01
2018-08-11T06:50:59.721Z,16.05
2018-08-11T06:51:59.751Z,16.17
2018-08-11T06:52:59.712Z,16.20
2018-08-11T06:55:25.959Z,16.46
2018-08-11T06:56:22.245Z,16.53
2018-08-11T06:58:17.054Z,16.53
2018-08-11T06:59:16.974Z,16.74
2018-08-11T07:04:41.014Z,16.86
2018-08-11T07:05:16.204Z,16.83
2018-08-11T07:10:17.747Z,17.06
2018-08-11T07:11:15.899Z,17.09
2018-08-11T07:13:10.319Z,17.23
2018-08-11T07:14:09.342Z,17.42
2018-08-11T07:16:44.240Z,17.68
2018-08-11T07:17:04.029Z,17.82
2018-08-11T07:19:01.404Z,18.08
2018-08-11T07:19:56.791Z,18.28
2018-08-11T07:21:51.335Z,18.52
2018-08-11T07:22:50.289Z,18.68
2018-08-11T07:24:44.034Z,18.75
2018-08-11T07:25:43.999Z,18.70
2018-08-11T07:27:37.740Z,18.52
2018-08-11T07:28:37.679Z,18.52
2018-08-11T07:30:32.429Z,18.23
2018-08-11T07:31:31.256Z,18.40
2018-08-11T07:32:31.520Z,18.45
2018-08-11T07:33:31.245Z,18.77
2018-08-11T07:34:31.243Z,18.98
2018-08-11T07:35:31.239Z,19.22
2018-08-11T07:36:31.346Z,19.44
2018-08-11T07:37:31.234Z,19.58
2018-08-11T07:38:31.233Z,19.85
2018-08-11T07:39:31.239Z,19.92
2018-08-11T07:40:31.229Z,19.95
2018-08-11T07:41:31.234Z,19.79
2018-08-11T07:42:34.129Z,19.88
2018-08-11T07:43:31.235Z,19.96
2018-08-11T07:44:31.233Z,19.96
2018-08-11T07:45:31.233Z,20.02
2018-08-11T07:46:31.238Z,20.02
2018-08-11T07:47:31.291Z,20.07
2018-08-11T07:48:31.268Z,20.16
2018-08-11T07:49:31.235Z,20.13
2018-08-11T07:50:31.232Z,20.19
2018-08-11T07:51:31.249Z,20.31
2018-08-11T07:52:32.146Z,20.29
2018-08-11T07:53:31.238Z,20.21
2018-08-11T07:54:31.304Z,20.16
2018-08-11T07:55:31.238Z,20.14
2018-08-11T07:56:31.241Z,20.07
2018-08-11T07:57:31.292Z,20.26
2018-08-11T07:58:31.246Z,20.31
2018-08-11T07:59:31.262Z,20.24
2018-08-11T08:00:31.244Z,20.31
2018-08-11T08:01:31.250Z,20.37
2018-08-11T08:02:31.236Z,20.25
2018-08-11T08:03:31.241Z,20.18
2018-08-11T08:04:31.249Z,20.18
2018-08-11T08:05:31.236Z,20.13
2018-08-11T08:06:31.241Z,20.24
2018-08-11T08:07:31.241Z,20.31
2018-08-11T08:08:31.239Z,20.26
2018-08-11T08:09:31.248Z,20.40
2018-08-11T08:10:31.245Z,20.40
2018-08-11T08:11:31.247Z,20.52
2018-08-11T08:12:31.245Z,20.51
2018-08-11T08:13:31.287Z,20.59
2018-08-11T08:14:31.249Z,20.81
2018-08-11T08:15:31.250Z,20.99
2018-08-11T08:16:31.246Z,21.05
2018-08-11T08:17:31.246Z,21.21
2018-08-11T08:18:31.252Z,21.25
2018-08-11T08:19:31.258Z,21.20
2018-08-11T08:20:31.252Z,21.15
2018-08-11T08:21:31.254Z,21.09
2018-08-11T08:22:31.257Z,20.95
2018-08-11T08:23:31.263Z,20.85
2018-08-11T08:24:31.258Z,20.69
2018-08-11T08:25:31.263Z,20.59
2018-08-11T08:26:31.508Z,20.55
2018-08-11T08:27:31.261Z,20.55
2018-08-11T08:28:31.260Z,20.67
2018-08-11T08:29:31.262Z,20.62
2018-08-11T08:30:31.264Z,20.72
2018-08-11T08:31:31.263Z,20.82
2018-08-11T08:32:31.267Z,20.97
2018-08-11T08:33:31.270Z,20.99
2018-08-11T08:34:31.272Z,21.07
2018-08-11T08:35:31.275Z,20.97
2018-08-11T08:36:31.266Z,20.97
2018-08-11T08:37:31.281Z,21.11
2018-08-11T08:38:31.271Z,21.22
2018-08-11T08:39:31.277Z,21.15
2018-08-11T08:40:31.276Z,21.25
2018-08-11T08:41:31.273Z,21.22
2018-08-11T08:42:31.272Z,21.02
2018-08-11T08:43:31.280Z,21.06
2018-08-11T08:44:31.281Z,20.81
2018-08-11T08:45:31.330Z,20.75
2018-08-11T08:46:31.283Z,20.85
2018-08-11T08:47:31.349Z,21.06
2018-08-11T08:48:31.277Z,21.18
2018-08-11T08:49:31.290Z,21.29
2018-08-11T08:50:31.288Z,21.32
2018-08-11T08:51:31.303Z,21.25
2018-08-11T08:52:31.284Z,21.24
2018-08-11T08:53:31.283Z,21.24
2018-08-11T08:54:31.283Z,21.14
2018-08-11T08:55:31.301Z,21.07
2018-08-11T08:56:31.290Z,21.09
2018-08-11T08:57:31.295Z,21.07
2018-08-11T08:58:31.294Z,21.05
2018-08-11T08:59:31.304Z,21.09
2018-08-11T09:00:31.287Z,21.07
2018-08-11T09:01:31.317Z,21.18
2018-08-11T09:02:31.306Z,21.22
2018-08-11T09:03:31.296Z,21.29
2018-08-11T09:04:31.322Z,21.36
2018-08-11T09:05:31.326Z,21.50
2018-08-11T09:06:31.316Z,21.69
2018-08-11T09:07:31.293Z,22.06
2018-08-11T09:08:31.297Z,22.11
2018-08-11T09:09:31.300Z,22.10
2018-08-11T09:10:31.327Z,22.13
2018-08-11T09:11:31.302Z,22.26
2018-08-11T09:12:31.316Z,22.28
2018-08-11T09:13:31.320Z,22.36
2018-08-11T09:14:31.309Z,22.44
2018-08-11T09:15:31.312Z,22.57
2018-08-11T09:16:31.316Z,22.73
2018-08-11T09:17:31.343Z,22.93
2018-08-11T09:18:31.311Z,22.91
2018-08-11T09:19:31.370Z,22.99
2018-08-11T09:20:31.319Z,23.06
2018-08-11T09:21:31.319Z,22.87
2018-08-11T09:22:31.322Z,22.83
2018-08-11T09:23:31.327Z,22.75
2018-08-11T09:24:31.329Z,22.62
2018-08-11T09:25:31.332Z,22.55
2018-08-11T09:26:31.461Z,22.70
2018-08-11T09:27:31.335Z,22.70
2018-08-11T09:28:31.346Z,22.81
2018-08-11T09:29:31.341Z,22.73
2018-08-11T09:30:31.343Z,22.80
2018-08-11T09:31:31.346Z,22.80
2018-08-11T09:32:31.351Z,22.81
2018-08-11T09:33:31.354Z,22.63
2018-08-11T09:34:31.355Z,22.62
2018-08-11T09:35:31.357Z,22.59
2018-08-11T09:36:31.363Z,22.72
2018-08-11T09:37:31.360Z,22.81
2018-08-11T09:38:31.408Z,22.91
2018-08-11T09:39:31.369Z,23.06
2018-08-11T09:40:31.393Z,23.24
2018-08-11T09:41:31.368Z,23.50
2018-08-11T09:42:31.381Z,23.58
2018-08-11T09:43:31.390Z,23.84
2018-08-11T09:44:31.382Z,23.95
2018-08-11T09:45:31.383Z,23.80
2018-08-11T09:46:31.388Z,23.63
2018-08-11T09:47:31.390Z,23.51
2018-08-11T09:48:31.388Z,23.28
2018-08-11T09:49:31.394Z,23.03
2018-08-11T09:50:31.404Z,22.87
2018-08-11T09:51:31.429Z,22.91
2018-08-11T09:52:31.416Z,23.06
2018-08-11T09:53:31.435Z,23.06
2018-08-11T09:54:31.424Z,22.91
2018-08-11T09:55:31.424Z,22.80
2018-08-11T09:56:31.415Z,22.83
2018-08-11T09:57:31.417Z,22.68
2018-08-11T09:58:31.417Z,22.72
2018-08-11T09:59:31.422Z,22.84
2018-08-11T10:00:31.418Z,23.06
2018-08-11T10:01:31.426Z,23.27
2018-08-11T10:02:31.427Z,23.24
2018-08-11T10:03:31.428Z,23.32
2018-08-11T10:04:31.433Z,23.24
2018-08-11T10:05:31.433Z,23.18
2018-08-11T10:06:31.438Z,23.32
2018-08-11T10:07:31.443Z,23.50
2018-08-11T10:08:31.442Z,23.66
2018-08-11T10:09:31.458Z,24.01
2018-08-11T10:10:31.488Z,24.35
2018-08-11T10:11:31.451Z,24.54
2018-08-11T10:12:31.451Z,24.63
2018-08-11T10:13:31.460Z,24.86
2018-08-11T10:14:31.464Z,24.98
2018-08-11T10:15:31.473Z,25.07
2018-08-11T10:16:31.471Z,25.18
2018-08-11T10:17:31.477Z,25.14
2018-08-11T10:18:31.505Z,25.32
2018-08-11T10:19:32.252Z,25.33
2018-08-11T10:20:31.490Z,25.29
2018-08-11T10:21:31.503Z,25.21
2018-08-11T10:22:31.499Z,25.16
2018-08-11T10:23:31.509Z,25.03
2018-08-11T10:24:31.504Z,24.86
2018-08-11T10:25:31.552Z,24.85
2018-08-11T10:26:31.511Z,24.78
2018-08-11T10:27:31.519Z,24.81
2018-08-11T10:28:31.515Z,25.06
2018-08-11T10:29:31.525Z,25.18
2018-08-11T10:30:31.527Z,25.41
2018-08-11T10:31:31.534Z,25.63
2018-08-11T10:32:31.532Z,25.93
2018-08-11T10:33:31.545Z,26.16
2018-08-11T10:34:31.552Z,26.07
2018-08-11T10:35:31.554Z,25.96
2018-08-11T10:36:31.558Z,25.96
2018-08-11T10:37:31.565Z,25.83
2018-08-11T10:38:31.593Z,25.53
2018-08-11T10:39:31.569Z,25.35
2018-08-11T10:40:31.574Z,25.28
2018-08-11T10:41:31.581Z,25.17
2018-08-11T10:42:31.584Z,25.13
2018-08-11T10:43:31.593Z,24.93
2018-08-11T10:44:31.595Z,24.68
2018-08-11T10:45:31.597Z,24.51
2018-08-11T10:46:31.624Z,24.35
2018-08-11T10:47:31.604Z,24.28
2018-08-11T10:48:31.612Z,24.17
2018-08-11T10:49:31.613Z,24.05
2018-08-11T10:50:31.631Z,23.96
2018-08-11T10:51:31.620Z,23.86
2018-08-11T10:52:31.617Z,23.99
2018-08-11T10:53:31.626Z,24.24
2018-08-11T10:54:31.625Z,24.30
2018-08-11T10:55:31.633Z,24.32
2018-08-11T10:56:31.635Z,24.16
2018-08-11T10:57:31.660Z,24.06
2018-08-11T10:58:31.663Z,23.93
2018-08-11T10:59:31.646Z,23.78
2018-08-11T11:00:31.643Z,23.66
2018-08-11T11:01:31.647Z,23.54
2018-08-11T11:02:31.677Z,23.34
2018-08-11T11:03:31.652Z,23.25
2018-08-11T11:04:31.693Z,23.10
2018-08-11T11:05:31.662Z,22.90
2018-08-11T11:06:31.659Z,22.88
2018-08-11T11:07:31.661Z,22.87
2018-08-11T11:08:31.766Z,22.70
2018-08-11T11:09:31.666Z,22.76
2018-08-11T11:10:31.668Z,22.76
2018-08-11T11:11:31.674Z,22.68
2018-08-11T11:12:31.670Z,22.70
2018-08-11T11:13:31.667Z,22.83
2018-08-11T11:14:31.672Z,22.81
2018-08-11T11:15:31.674Z,22.84
2018-08-11T11:16:31.674Z,22.88
2018-08-11T11:17:32.302Z,22.91
2018-08-11T11:18:31.679Z,22.98
2018-08-11T11:19:31.687Z,22.81
2018-08-11T11:20:31.673Z,22.78
2018-08-11T11:21:31.692Z,22.83
2018-08-11T11:22:31.713Z,22.85
2018-08-11T11:23:31.686Z,22.80
2018-08-11T11:24:31.676Z,22.73
2018-08-11T11:25:31.676Z,22.83
2018-08-11T11:26:31.698Z,22.76
2018-08-11T11:27:31.698Z,22.78
2018-08-11T11:28:31.677Z,22.78
2018-08-11T11:29:31.682Z,22.66
2018-08-11T11:30:31.689Z,22.66
2018-08-11T11:31:31.719Z,22.65
2018-08-11T11:32:31.692Z,22.70
2018-08-11T11:33:31.691Z,22.66
2018-08-11T11:34:31.695Z,22.70
2018-08-11T11:35:31.688Z,22.57
2018-08-11T11:36:31.682Z,22.57
2018-08-11T11:37:31.687Z,22.54
2018-08-11T11:38:31.691Z,22.51
2018-08-11T11:39:31.687Z,22.57
2018-08-11T11:40:31.693Z,22.44
2018-08-11T11:41:31.679Z,22.55
2018-08-11T11:42:31.706Z,22.55
2018-08-11T11:43:31.686Z,22.73
2018-08-11T11:44:31.689Z,22.80
2018-08-11T11:45:31.696Z,22.98
2018-08-11T11:46:31.681Z,23.13
2018-08-11T11:47:31.718Z,23.17
2018-08-11T11:48:31.694Z,23.17
2018-08-11T11:49:31.691Z,23.31
2018-08-11T11:50:31.701Z,23.24
2018-08-11T11:51:31.703Z,23.31
2018-08-11T11:52:31.688Z,23.36
2018-08-11T11:53:31.687Z,23.41
2018-08-11T11:54:31.731Z,23.56
2018-08-11T11:55:31.691Z,23.77
2018-08-11T11:56:31.730Z,23.95
2018-08-11T11:57:31.709Z,24.05
2018-08-11T11:58:31.697Z,24.21
2018-08-11T11:59:31.701Z,24.38
2018-08-11T12:00:31.702Z,24.35
2018-08-11T12:01:31.706Z,24.47
2018-08-11T12:02:31.711Z,24.47
2018-08-11T12:03:31.721Z,24.42
2018-08-11T12:04:31.714Z,24.32
2018-08-11T12:05:32.319Z,24.40
2018-08-11T12:06:31.731Z,24.55
2018-08-11T12:07:31.722Z,24.66
2018-08-11T12:08:31.731Z,24.61
2018-08-11T12:09:31.741Z,24.51
2018-08-11T12:10:31.732Z,24.55
2018-08-11T12:11:31.737Z,24.47
2018-08-11T12:12:31.763Z,24.50
2018-08-11T12:13:31.739Z,24.60
2018-08-11T12:14:31.764Z,24.47
2018-08-11T12:15:31.759Z,24.54
2018-08-11T12:16:31.767Z,24.48
2018-08-11T12:17:31.766Z,24.61
2018-08-11T12:18:31.759Z,24.48
2018-08-11T12:19:31.802Z,24.45
2018-08-11T12:20:31.765Z,24.32
2018-08-11T12:21:31.769Z,24.40
2018-08-11T12:22:31.775Z,24.32
2018-08-11T12:23:31.775Z,24.33
2018-08-11T12:24:31.785Z,24.40
2018-08-11T12:25:31.798Z,24.38
2018-08-11T12:26:31.782Z,24.30
2018-08-11T12:27:31.813Z,24.29
2018-08-11T12:28:31.790Z,24.38
2018-08-11T12:29:31.798Z,24.39
2018-08-11T12:30:31.800Z,24.36
2018-08-11T12:31:31.803Z,24.30
2018-08-11T12:32:31.801Z,24.21
2018-08-11T12:33:31.803Z,24.26
2018-08-11T12:34:31.809Z,24.11
2018-08-11T12:35:31.805Z,24.16
2018-08-11T12:36:31.823Z,24.08
2018-08-11T12:37:31.815Z,24.06
2018-08-11T12:38:31.829Z,23.93
2018-08-11T12:39:31.815Z,23.76
2018-08-11T12:40:31.816Z,23.63
2018-08-11T12:41:31.832Z,23.61
2018-08-11T12:42:31.824Z,23.76
2018-08-11T12:43:31.820Z,23.99
2018-08-11T12:44:31.828Z,24.11
2018-08-11T12:45:31.830Z,24.11
2018-08-11T12:46:31.832Z,24.11
2018-08-11T12:47:31.838Z,24.14
2018-08-11T12:48:31.844Z,24.16
2018-08-11T12:49:31.855Z,24.20
2018-08-11T12:50:31.837Z,24.33
2018-08-11T12:51:31.842Z,24.61
2018-08-11T12:52:31.844Z,24.77
2018-08-11T12:53:31.958Z,24.84
2018-08-11T12:54:31.901Z,24.98
2018-08-11T12:55:31.855Z,25.18
2018-08-11T12:56:31.866Z,25.29
2018-08-11T12:57:31.856Z,25.41
2018-08-11T12:58:31.922Z,25.43
2018-08-11T12:59:31.872Z,25.38
2018-08-11T13:00:31.880Z,25.41
2018-08-11T13:01:31.879Z,25.44
2018-08-11T13:02:31.885Z,25.40
2018-08-11T13:03:31.883Z,25.50
2018-08-11T13:04:31.898Z,25.35
2018-08-11T13:05:31.921Z,25.43
2018-08-11T13:06:31.897Z,25.36
2018-08-11T13:07:31.902Z,25.48
2018-08-11T13:08:31.901Z,25.53